Eielson Air Force Base Fairbanks US
ICAO: PAEI
IATA:
Category: Medium
Scheduled Services:

Elevation: 547 ft
TransAlt. 18000 ft.

Airport Communications:
FAIRBANKS APP:125.35
ASOS:118.525
ATIS:27.35
CLNC DEL:34.37
FAIRBANKS DEP:126.5
GND:121.8
RANGE CON:125.3
SOURDOUGH:139.6
IGLOO:25.95
PMSV METRO:34.66
CHENA CON:23.81
PTD:37.22
TWR:127.2

PAEI Zoom In..

Runways:

(A) RW 14 length 14530 ft width 150 ft
ILS 110.50 / hdg 136

(B) RW 32 length 14530 ft width 150 ft
ILS 109.90 / hdg 316

Location; PAEI
Day. 03 / Time. 01.56 Zulu
* Altimeter: 29.59
* Temperature: 16° c. 60.8°f.
* Wind from: 080° Speed 08 kn.
Dewpoint: 08° c.
Visibility: 10 Statute Miles.
Clouds: Scattered 4800 ft.
Clouds: Broken 5500 ft.
Clouds: Broken 15000 ft.

PAEI 030156Z 08008KT 10SM SCT048 BKN055 BKN150 16/08 A2959 RMK AO2A SLP024 T01550078 $


Wind From 080°
Speed 08 kn.

 
 
jpsmedia worldairports.se 2020   terms of use